sensor_id;sensor_type;location;lat;lon;timestamp;P1;durP1;ratioP1;P2;durP2;ratioP2
32786;SDS011;19139;49.372;8.580;2022-12-20T00:01:21;9.13;;;6.97;;
32786;SDS011;19139;49.372;8.580;2022-12-20T00:03:53;11.40;;;6.80;;
32786;SDS011;19139;49.372;8.580;2022-12-20T00:06:21;8.60;;;6.17;;
32786;SDS011;19139;49.372;8.580;2022-12-20T00:08:52;8.90;;;6.70;;
32786;SDS011;19139;49.372;8.580;2022-12-20T00:11:20;8.90;;;6.77;;
32786;SDS011;19139;49.372;8.580;2022-12-20T00:13:47;9.50;;;6.67;;
32786;SDS011;19139;49.372;8.580;2022-12-20T00:16:15;10.37;;;6.77;;
32786;SDS011;19139;49.372;8.580;2022-12-20T00:18:44;9.00;;;6.37;;
32786;SDS011;19139;49.372;8.580;2022-12-20T00:21:11;9.03;;;6.33;;
32786;SDS011;19139;49.372;8.580;2022-12-20T00:23:40;8.97;;;6.67;;
32786;SDS011;19139;49.372;8.580;2022-12-20T00:26:08;8.97;;;6.27;;
32786;SDS011;19139;49.372;8.580;2022-12-20T00:28:37;7.27;;;6.17;;
32786;SDS011;19139;49.372;8.580;2022-12-20T00:31:04;9.47;;;6.57;;
32786;SDS011;19139;49.372;8.580;2022-12-20T00:33:32;8.97;;;6.60;;
32786;SDS011;19139;49.372;8.580;2022-12-20T00:35:59;8.80;;;6.33;;
32786;SDS011;19139;49.372;8.580;2022-12-20T00:38:26;9.93;;;7.23;;
32786;SDS011;19139;49.372;8.580;2022-12-20T00:41:09;9.53;;;7.07;;
32786;SDS011;19139;49.372;8.580;2022-12-20T00:43:38;9.40;;;6.73;;
32786;SDS011;19139;49.372;8.580;2022-12-20T00:46:06;9.00;;;6.73;;
32786;SDS011;19139;49.372;8.580;2022-12-20T00:48:34;8.73;;;6.47;;
32786;SDS011;19139;49.372;8.580;2022-12-20T00:51:03;9.00;;;6.77;;
32786;SDS011;19139;49.372;8.580;2022-12-20T00:53:35;9.00;;;6.23;;
32786;SDS011;19139;49.372;8.580;2022-12-20T00:56:02;7.10;;;6.00;;
32786;SDS011;19139;49.372;8.580;2022-12-20T00:58:31;10.40;;;6.70;;
32786;SDS011;19139;49.372;8.580;2022-12-20T01:00:58;7.93;;;6.13;;
32786;SDS011;19139;49.372;8.580;2022-12-20T01:03:25;9.53;;;6.90;;
32786;SDS011;19139;49.372;8.580;2022-12-20T01:05:54;8.90;;;6.37;;
32786;SDS011;19139;49.372;8.580;2022-12-20T01:08:23;10.30;;;7.23;;
32786;SDS011;19139;49.372;8.580;2022-12-20T01:11:00;7.37;;;5.93;;
32786;SDS011;19139;49.372;8.580;2022-12-20T01:13:29;7.37;;;6.27;;
32786;SDS011;19139;49.372;8.580;2022-12-20T01:15:57;10.27;;;7.20;;
32786;SDS011;19139;49.372;8.580;2022-12-20T01:18:39;9.73;;;6.37;;
32786;SDS011;19139;49.372;8.580;2022-12-20T01:21:07;8.13;;;6.20;;
32786;SDS011;19139;49.372;8.580;2022-12-20T01:23:35;10.00;;;6.50;;
32786;SDS011;19139;49.372;8.580;2022-12-20T01:26:02;8.83;;;6.07;;
32786;SDS011;19139;49.372;8.580;2022-12-20T01:28:30;8.27;;;6.13;;
32786;SDS011;19139;49.372;8.580;2022-12-20T01:30:57;8.00;;;6.23;;
32786;SDS011;19139;49.372;8.580;2022-12-20T01:33:25;7.57;;;6.27;;
32786;SDS011;19139;49.372;8.580;2022-12-20T01:38:21;10.00;;;6.43;;
32786;SDS011;19139;49.372;8.580;2022-12-20T01:40:48;8.10;;;5.77;;
32786;SDS011;19139;49.372;8.580;2022-12-20T01:43:15;9.47;;;7.53;;
32786;SDS011;19139;49.372;8.580;2022-12-20T01:45:44;9.03;;;6.27;;
32786;SDS011;19139;49.372;8.580;2022-12-20T01:48:12;8.43;;;6.50;;
32786;SDS011;19139;49.372;8.580;2022-12-20T01:50:44;7.67;;;6.23;;
32786;SDS011;19139;49.372;8.580;2022-12-20T01:53:13;8.13;;;6.23;;
32786;SDS011;19139;49.372;8.580;2022-12-20T01:55:41;9.80;;;6.07;;
32786;SDS011;19139;49.372;8.580;2022-12-20T01:58:09;8.13;;;5.80;;
32786;SDS011;19139;49.372;8.580;2022-12-20T02:00:38;8.60;;;6.50;;
32786;SDS011;19139;49.372;8.580;2022-12-20T02:03:06;8.27;;;6.90;;
32786;SDS011;19139;49.372;8.580;2022-12-20T02:05:36;7.30;;;6.10;;
32786;SDS011;19139;49.372;8.580;2022-12-20T02:08:04;7.17;;;5.80;;
32786;SDS011;19139;49.372;8.580;2022-12-20T02:13:16;7.93;;;6.00;;
32786;SDS011;19139;49.372;8.580;2022-12-20T02:15:55;8.60;;;6.57;;
32786;SDS011;19139;49.372;8.580;2022-12-20T02:18:34;7.33;;;6.13;;
32786;SDS011;19139;49.372;8.580;2022-12-20T02:21:20;7.97;;;6.00;;
32786;SDS011;19139;49.372;8.580;2022-12-20T02:32:35;7.47;;;5.63;;
32786;SDS011;19139;49.372;8.580;2022-12-20T02:35:06;7.90;;;5.70;;
32786;SDS011;19139;49.372;8.580;2022-12-20T02:37:34;7.27;;;5.70;;
32786;SDS011;19139;49.372;8.580;2022-12-20T02:40:01;7.77;;;5.70;;
32786;SDS011;19139;49.372;8.580;2022-12-20T02:42:30;8.03;;;5.83;;
32786;SDS011;19139;49.372;8.580;2022-12-20T02:44:59;6.63;;;5.50;;
32786;SDS011;19139;49.372;8.580;2022-12-20T02:47:56;9.97;;;6.47;;
32786;SDS011;19139;49.372;8.580;2022-12-20T02:50:30;7.87;;;6.27;;
32786;SDS011;19139;49.372;8.580;2022-12-20T02:53:03;9.00;;;5.70;;
32786;SDS011;19139;49.372;8.580;2022-12-20T02:55:40;8.67;;;6.23;;
32786;SDS011;19139;49.372;8.580;2022-12-20T02:58:16;6.50;;;5.37;;
32786;SDS011;19139;49.372;8.580;2022-12-20T03:00:49;7.40;;;5.40;;
32786;SDS011;19139;49.372;8.580;2022-12-20T03:03:17;8.37;;;6.00;;
32786;SDS011;19139;49.372;8.580;2022-12-20T03:05:49;6.73;;;5.20;;
32786;SDS011;19139;49.372;8.580;2022-12-20T03:08:18;7.27;;;5.73;;
32786;SDS011;19139;49.372;8.580;2022-12-20T03:10:46;8.03;;;5.63;;
32786;SDS011;19139;49.372;8.580;2022-12-20T03:13:14;7.13;;;5.37;;
32786;SDS011;19139;49.372;8.580;2022-12-20T03:15:41;6.70;;;6.00;;
32786;SDS011;19139;49.372;8.580;2022-12-20T03:18:07;7.70;;;5.80;;
32786;SDS011;19139;49.372;8.580;2022-12-20T03:20:34;7.23;;;5.53;;
32786;SDS011;19139;49.372;8.580;2022-12-20T03:23:01;6.13;;;5.40;;
32786;SDS011;19139;49.372;8.580;2022-12-20T03:25:28;6.10;;;5.17;;
32786;SDS011;19139;49.372;8.580;2022-12-20T03:27:54;8.87;;;7.17;;
32786;SDS011;19139;49.372;8.580;2022-12-20T03:30:21;6.83;;;5.70;;
32786;SDS011;19139;49.372;8.580;2022-12-20T03:32:47;7.43;;;5.20;;
32786;SDS011;19139;49.372;8.580;2022-12-20T03:35:14;7.93;;;5.53;;
32786;SDS011;19139;49.372;8.580;2022-12-20T03:37:41;7.63;;;5.50;;
32786;SDS011;19139;49.372;8.580;2022-12-20T03:40:08;7.03;;;5.73;;
32786;SDS011;19139;49.372;8.580;2022-12-20T03:42:35;7.27;;;5.30;;
32786;SDS011;19139;49.372;8.580;2022-12-20T03:45:03;6.73;;;5.83;;
32786;SDS011;19139;49.372;8.580;2022-12-20T03:47:30;5.83;;;5.20;;
32786;SDS011;19139;49.372;8.580;2022-12-20T03:49:57;6.93;;;5.83;;
32786;SDS011;19139;49.372;8.580;2022-12-20T03:52:24;5.83;;;4.73;;
32786;SDS011;19139;49.372;8.580;2022-12-20T03:54:50;6.93;;;5.47;;
32786;SDS011;19139;49.372;8.580;2022-12-20T03:57:17;7.07;;;5.43;;
32786;SDS011;19139;49.372;8.580;2022-12-20T03:59:43;6.33;;;5.10;;
32786;SDS011;19139;49.372;8.580;2022-12-20T04:02:10;6.60;;;5.13;;
32786;SDS011;19139;49.372;8.580;2022-12-20T04:04:37;7.93;;;5.33;;
32786;SDS011;19139;49.372;8.580;2022-12-20T04:07:04;6.17;;;5.57;;
32786;SDS011;19139;49.372;8.580;2022-12-20T04:09:30;6.57;;;5.30;;
32786;SDS011;19139;49.372;8.580;2022-12-20T04:11:57;6.60;;;4.83;;
32786;SDS011;19139;49.372;8.580;2022-12-20T04:14:23;6.07;;;4.97;;
32786;SDS011;19139;49.372;8.580;2022-12-20T04:16:50;5.93;;;5.20;;
32786;SDS011;19139;49.372;8.580;2022-12-20T04:19:16;9.23;;;6.10;;
32786;SDS011;19139;49.372;8.580;2022-12-20T04:21:43;7.17;;;4.97;;
32786;SDS011;19139;49.372;8.580;2022-12-20T04:24:10;6.87;;;5.27;;
32786;SDS011;19139;49.372;8.580;2022-12-20T04:26:37;7.37;;;5.70;;
32786;SDS011;19139;49.372;8.580;2022-12-20T04:29:03;6.63;;;5.70;;
32786;SDS011;19139;49.372;8.580;2022-12-20T04:31:30;6.37;;;5.73;;
32786;SDS011;19139;49.372;8.580;2022-12-20T04:33:57;7.20;;;5.30;;
32786;SDS011;19139;49.372;8.580;2022-12-20T04:36:23;5.57;;;5.03;;
32786;SDS011;19139;49.372;8.580;2022-12-20T04:38:51;7.43;;;5.73;;
32786;SDS011;19139;49.372;8.580;2022-12-20T04:41:17;7.50;;;5.30;;
32786;SDS011;19139;49.372;8.580;2022-12-20T04:43:51;6.73;;;5.70;;
32786;SDS011;19139;49.372;8.580;2022-12-20T04:46:19;7.50;;;5.20;;
32786;SDS011;19139;49.372;8.580;2022-12-20T04:48:46;6.23;;;4.83;;
32786;SDS011;19139;49.372;8.580;2022-12-20T04:51:23;5.57;;;4.80;;
32786;SDS011;19139;49.372;8.580;2022-12-20T04:53:50;5.77;;;5.17;;
32786;SDS011;19139;49.372;8.580;2022-12-20T04:56:18;7.07;;;5.40;;
32786;SDS011;19139;49.372;8.580;2022-12-20T04:58:50;5.67;;;5.07;;
32786;SDS011;19139;49.372;8.580;2022-12-20T05:01:19;6.10;;;5.17;;
32786;SDS011;19139;49.372;8.580;2022-12-20T05:03:46;5.30;;;4.43;;
32786;SDS011;19139;49.372;8.580;2022-12-20T05:06:14;5.30;;;4.80;;
32786;SDS011;19139;49.372;8.580;2022-12-20T05:08:41;5.90;;;5.07;;
32786;SDS011;19139;49.372;8.580;2022-12-20T05:11:08;6.27;;;4.67;;
32786;SDS011;19139;49.372;8.580;2022-12-20T05:13:35;5.87;;;4.93;;
32786;SDS011;19139;49.372;8.580;2022-12-20T05:16:01;5.10;;;4.60;;
32786;SDS011;19139;49.372;8.580;2022-12-20T05:18:29;7.23;;;4.83;;
32786;SDS011;19139;49.372;8.580;2022-12-20T05:20:57;6.10;;;4.60;;
32786;SDS011;19139;49.372;8.580;2022-12-20T05:23:43;5.40;;;4.83;;
32786;SDS011;19139;49.372;8.580;2022-12-20T05:26:29;6.37;;;4.90;;
32786;SDS011;19139;49.372;8.580;2022-12-20T05:28:59;5.70;;;4.67;;
32786;SDS011;19139;49.372;8.580;2022-12-20T05:31:26;6.63;;;5.00;;
32786;SDS011;19139;49.372;8.580;2022-12-20T05:33:53;6.43;;;4.93;;
32786;SDS011;19139;49.372;8.580;2022-12-20T05:36:20;5.53;;;4.40;;
32786;SDS011;19139;49.372;8.580;2022-12-20T05:38:46;5.70;;;4.17;;
32786;SDS011;19139;49.372;8.580;2022-12-20T05:41:13;6.83;;;4.80;;
32786;SDS011;19139;49.372;8.580;2022-12-20T05:43:39;6.57;;;4.93;;
32786;SDS011;19139;49.372;8.580;2022-12-20T05:46:06;5.17;;;4.77;;
32786;SDS011;19139;49.372;8.580;2022-12-20T05:48:33;5.33;;;4.57;;
32786;SDS011;19139;49.372;8.580;2022-12-20T05:50:59;6.17;;;4.53;;
32786;SDS011;19139;49.372;8.580;2022-12-20T05:53:26;5.50;;;5.00;;
32786;SDS011;19139;49.372;8.580;2022-12-20T05:55:53;5.23;;;4.73;;
32786;SDS011;19139;49.372;8.580;2022-12-20T05:58:20;5.40;;;4.30;;
32786;SDS011;19139;49.372;8.580;2022-12-20T06:00:47;4.97;;;4.47;;
32786;SDS011;19139;49.372;8.580;2022-12-20T06:03:14;5.30;;;4.80;;
32786;SDS011;19139;49.372;8.580;2022-12-20T06:05:41;5.67;;;4.50;;
32786;SDS011;19139;49.372;8.580;2022-12-20T06:08:09;5.60;;;4.50;;
32786;SDS011;19139;49.372;8.580;2022-12-20T06:10:37;5.30;;;4.23;;
32786;SDS011;19139;49.372;8.580;2022-12-20T06:13:06;5.90;;;5.17;;
32786;SDS011;19139;49.372;8.580;2022-12-20T06:15:34;5.63;;;4.77;;
32786;SDS011;19139;49.372;8.580;2022-12-20T06:18:00;6.07;;;5.10;;
32786;SDS011;19139;49.372;8.580;2022-12-20T06:20:27;6.57;;;4.27;;
32786;SDS011;19139;49.372;8.580;2022-12-20T06:22:53;5.73;;;5.00;;
32786;SDS011;19139;49.372;8.580;2022-12-20T06:25:20;4.80;;;4.30;;
32786;SDS011;19139;49.372;8.580;2022-12-20T06:27:47;6.87;;;4.90;;
32786;SDS011;19139;49.372;8.580;2022-12-20T06:30:14;5.57;;;4.67;;
32786;SDS011;19139;49.372;8.580;2022-12-20T06:32:42;6.03;;;4.63;;
32786;SDS011;19139;49.372;8.580;2022-12-20T06:35:08;4.80;;;4.30;;
32786;SDS011;19139;49.372;8.580;2022-12-20T06:37:35;6.00;;;5.23;;
32786;SDS011;19139;49.372;8.580;2022-12-20T06:40:02;5.20;;;4.50;;
32786;SDS011;19139;49.372;8.580;2022-12-20T06:42:30;4.77;;;4.10;;
32786;SDS011;19139;49.372;8.580;2022-12-20T06:44:57;5.23;;;4.27;;
32786;SDS011;19139;49.372;8.580;2022-12-20T06:47:23;7.00;;;5.07;;
32786;SDS011;19139;49.372;8.580;2022-12-20T06:49:50;5.60;;;4.33;;
32786;SDS011;19139;49.372;8.580;2022-12-20T06:52:16;4.90;;;4.30;;
32786;SDS011;19139;49.372;8.580;2022-12-20T06:54:43;5.43;;;4.63;;
32786;SDS011;19139;49.372;8.580;2022-12-20T06:57:10;5.27;;;4.33;;
32786;SDS011;19139;49.372;8.580;2022-12-20T06:59:36;5.70;;;4.00;;
32786;SDS011;19139;49.372;8.580;2022-12-20T07:02:03;5.57;;;4.43;;
32786;SDS011;19139;49.372;8.580;2022-12-20T07:04:32;5.20;;;4.70;;
32786;SDS011;19139;49.372;8.580;2022-12-20T07:06:59;5.57;;;4.60;;
32786;SDS011;19139;49.372;8.580;2022-12-20T07:09:25;5.70;;;4.70;;
32786;SDS011;19139;49.372;8.580;2022-12-20T07:11:52;5.30;;;4.63;;
32786;SDS011;19139;49.372;8.580;2022-12-20T07:14:18;5.77;;;4.17;;
32786;SDS011;19139;49.372;8.580;2022-12-20T07:16:45;5.83;;;4.53;;
32786;SDS011;19139;49.372;8.580;2022-12-20T07:19:12;5.23;;;4.43;;
32786;SDS011;19139;49.372;8.580;2022-12-20T07:21:40;5.33;;;4.53;;
32786;SDS011;19139;49.372;8.580;2022-12-20T07:24:08;9.00;;;4.70;;
32786;SDS011;19139;49.372;8.580;2022-12-20T07:26:35;6.53;;;4.73;;
32786;SDS011;19139;49.372;8.580;2022-12-20T07:29:02;6.13;;;4.27;;
32786;SDS011;19139;49.372;8.580;2022-12-20T07:31:29;6.80;;;4.80;;
32786;SDS011;19139;49.372;8.580;2022-12-20T07:33:55;5.63;;;3.83;;
32786;SDS011;19139;49.372;8.580;2022-12-20T07:36:22;6.20;;;4.50;;
32786;SDS011;19139;49.372;8.580;2022-12-20T07:38:49;4.53;;;4.10;;
32786;SDS011;19139;49.372;8.580;2022-12-20T07:41:16;7.27;;;4.63;;
32786;SDS011;19139;49.372;8.580;2022-12-20T07:43:46;7.13;;;4.50;;
32786;SDS011;19139;49.372;8.580;2022-12-20T07:46:13;6.27;;;4.60;;
32786;SDS011;19139;49.372;8.580;2022-12-20T07:48:41;9.97;;;4.97;;
32786;SDS011;19139;49.372;8.580;2022-12-20T07:51:52;6.80;;;4.40;;
32786;SDS011;19139;49.372;8.580;2022-12-20T07:54:14;8.30;;;4.37;;
32786;SDS011;19139;49.372;8.580;2022-12-20T07:56:49;5.67;;;4.67;;
32786;SDS011;19139;49.372;8.580;2022-12-20T07:59:20;6.23;;;4.80;;
32786;SDS011;19139;49.372;8.580;2022-12-20T08:01:50;5.70;;;4.17;;
32786;SDS011;19139;49.372;8.580;2022-12-20T08:04:22;9.40;;;4.13;;
32786;SDS011;19139;49.372;8.580;2022-12-20T08:06:51;5.77;;;4.23;;
32786;SDS011;19139;49.372;8.580;2022-12-20T08:09:21;6.83;;;4.40;;
32786;SDS011;19139;49.372;8.580;2022-12-20T08:11:49;9.40;;;4.63;;
32786;SDS011;19139;49.372;8.580;2022-12-20T08:14:16;7.40;;;4.60;;
32786;SDS011;19139;49.372;8.580;2022-12-20T08:16:44;7.77;;;4.30;;
32786;SDS011;19139;49.372;8.580;2022-12-20T08:19:11;8.37;;;5.40;;
32786;SDS011;19139;49.372;8.580;2022-12-20T08:21:38;6.90;;;4.10;;
32786;SDS011;19139;49.372;8.580;2022-12-20T08:24:05;7.87;;;4.50;;
32786;SDS011;19139;49.372;8.580;2022-12-20T08:26:36;6.20;;;4.20;;
32786;SDS011;19139;49.372;8.580;2022-12-20T08:29:04;7.37;;;4.13;;
32786;SDS011;19139;49.372;8.580;2022-12-20T08:31:31;6.10;;;4.20;;
32786;SDS011;19139;49.372;8.580;2022-12-20T08:33:58;9.23;;;4.60;;
32786;SDS011;19139;49.372;8.580;2022-12-20T08:36:25;5.73;;;4.40;;
32786;SDS011;19139;49.372;8.580;2022-12-20T08:38:51;6.67;;;4.60;;
32786;SDS011;19139;49.372;8.580;2022-12-20T08:41:18;7.37;;;5.00;;
32786;SDS011;19139;49.372;8.580;2022-12-20T08:43:45;7.53;;;3.80;;
32786;SDS011;19139;49.372;8.580;2022-12-20T08:46:11;6.80;;;4.03;;
32786;SDS011;19139;49.372;8.580;2022-12-20T08:48:38;7.70;;;5.27;;
32786;SDS011;19139;49.372;8.580;2022-12-20T08:51:06;7.07;;;4.33;;
32786;SDS011;19139;49.372;8.580;2022-12-20T08:53:35;6.60;;;4.30;;
32786;SDS011;19139;49.372;8.580;2022-12-20T08:56:09;8.03;;;4.73;;
32786;SDS011;19139;49.372;8.580;2022-12-20T08:58:38;6.67;;;5.03;;
32786;SDS011;19139;49.372;8.580;2022-12-20T09:01:06;8.17;;;4.50;;
32786;SDS011;19139;49.372;8.580;2022-12-20T09:03:35;6.50;;;4.63;;
32786;SDS011;19139;49.372;8.580;2022-12-20T09:06:06;5.60;;;4.23;;
32786;SDS011;19139;49.372;8.580;2022-12-20T09:08:35;7.73;;;4.50;;
32786;SDS011;19139;49.372;8.580;2022-12-20T09:11:04;7.00;;;4.47;;
32786;SDS011;19139;49.372;8.580;2022-12-20T09:13:37;6.83;;;4.50;;
32786;SDS011;19139;49.372;8.580;2022-12-20T09:16:09;8.97;;;4.53;;
32786;SDS011;19139;49.372;8.580;2022-12-20T09:18:38;5.30;;;4.70;;
32786;SDS011;19139;49.372;8.580;2022-12-20T09:21:06;5.60;;;4.20;;
32786;SDS011;19139;49.372;8.580;2022-12-20T09:23:34;5.90;;;4.00;;
32786;SDS011;19139;49.372;8.580;2022-12-20T09:26:03;4.97;;;4.30;;
32786;SDS011;19139;49.372;8.580;2022-12-20T09:28:32;4.87;;;3.97;;
32786;SDS011;19139;49.372;8.580;2022-12-20T09:31:00;7.53;;;4.43;;
32786;SDS011;19139;49.372;8.580;2022-12-20T09:33:28;4.97;;;3.90;;
32786;SDS011;19139;49.372;8.580;2022-12-20T09:35:56;6.87;;;4.50;;
32786;SDS011;19139;49.372;8.580;2022-12-20T09:38:24;6.40;;;4.50;;
32786;SDS011;19139;49.372;8.580;2022-12-20T09:40:53;5.63;;;3.60;;
32786;SDS011;19139;49.372;8.580;2022-12-20T09:43:23;7.60;;;3.90;;
32786;SDS011;19139;49.372;8.580;2022-12-20T09:45:51;6.00;;;3.70;;
32786;SDS011;19139;49.372;8.580;2022-12-20T09:48:25;4.90;;;3.77;;
32786;SDS011;19139;49.372;8.580;2022-12-20T09:56:20;5.37;;;4.23;;
32786;SDS011;19139;49.372;8.580;2022-12-20T09:59:02;5.27;;;4.00;;
32786;SDS011;19139;49.372;8.580;2022-12-20T10:01:32;6.00;;;3.90;;
32786;SDS011;19139;49.372;8.580;2022-12-20T10:04:06;6.63;;;3.87;;
32786;SDS011;19139;49.372;8.580;2022-12-20T10:17:38;4.60;;;4.17;;
32786;SDS011;19139;49.372;8.580;2022-12-20T10:20:14;4.30;;;3.80;;
32786;SDS011;19139;49.372;8.580;2022-12-20T10:25:28;6.63;;;3.80;;
32786;SDS011;19139;49.372;8.580;2022-12-20T10:27:58;4.93;;;3.97;;
32786;SDS011;19139;49.372;8.580;2022-12-20T10:30:27;4.50;;;4.03;;
32786;SDS011;19139;49.372;8.580;2022-12-20T10:32:55;5.57;;;3.90;;
32786;SDS011;19139;49.372;8.580;2022-12-20T10:35:24;4.30;;;3.50;;
32786;SDS011;19139;49.372;8.580;2022-12-20T10:38:06;4.70;;;3.60;;
32786;SDS011;19139;49.372;8.580;2022-12-20T10:40:41;6.13;;;4.30;;
32786;SDS011;19139;49.372;8.580;2022-12-20T10:43:43;4.37;;;3.80;;
32786;SDS011;19139;49.372;8.580;2022-12-20T10:46:13;6.17;;;3.80;;
32786;SDS011;19139;49.372;8.580;2022-12-20T10:48:44;7.10;;;4.50;;
32786;SDS011;19139;49.372;8.580;2022-12-20T10:51:17;4.80;;;3.70;;
32786;SDS011;19139;49.372;8.580;2022-12-20T10:54:01;4.00;;;3.57;;
32786;SDS011;19139;49.372;8.580;2022-12-20T10:58:58;4.50;;;3.73;;
32786;SDS011;19139;49.372;8.580;2022-12-20T11:01:29;4.27;;;3.87;;
32786;SDS011;19139;49.372;8.580;2022-12-20T11:09:21;4.93;;;4.10;;
32786;SDS011;19139;49.372;8.580;2022-12-20T11:14:27;4.10;;;3.70;;
32786;SDS011;19139;49.372;8.580;2022-12-20T11:17:04;5.73;;;4.47;;
32786;SDS011;19139;49.372;8.580;2022-12-20T11:19:42;4.97;;;3.20;;
32786;SDS011;19139;49.372;8.580;2022-12-20T11:22:41;4.60;;;3.70;;
32786;SDS011;19139;49.372;8.580;2022-12-20T11:26:10;3.97;;;3.47;;
32786;SDS011;19139;49.372;8.580;2022-12-20T11:28:36;3.73;;;3.30;;
32786;SDS011;19139;49.372;8.580;2022-12-20T11:34:33;4.10;;;3.70;;
32786;SDS011;19139;49.372;8.580;2022-12-20T11:37:20;5.67;;;3.87;;
32786;SDS011;19139;49.372;8.580;2022-12-20T11:40:03;5.50;;;4.27;;
32786;SDS011;19139;49.372;8.580;2022-12-20T11:42:41;4.07;;;3.57;;
32786;SDS011;19139;49.372;8.580;2022-12-20T11:50:38;4.73;;;3.50;;
32786;SDS011;19139;49.372;8.580;2022-12-20T11:53:47;4.77;;;3.60;;
32786;SDS011;19139;49.372;8.580;2022-12-20T11:56:17;4.67;;;3.97;;
32786;SDS011;19139;49.372;8.580;2022-12-20T11:58:50;4.97;;;3.67;;
32786;SDS011;19139;49.372;8.580;2022-12-20T12:01:28;3.97;;;3.57;;
32786;SDS011;19139;49.372;8.580;2022-12-20T12:04:12;5.47;;;3.50;;
32786;SDS011;19139;49.372;8.580;2022-12-20T12:06:45;4.50;;;3.53;;
32786;SDS011;19139;49.372;8.580;2022-12-20T12:09:17;3.93;;;3.47;;
32786;SDS011;19139;49.372;8.580;2022-12-20T12:12:03;4.53;;;3.60;;
32786;SDS011;19139;49.372;8.580;2022-12-20T12:17:15;5.60;;;4.07;;
32786;SDS011;19139;49.372;8.580;2022-12-20T12:19:49;5.73;;;3.70;;
32786;SDS011;19139;49.372;8.580;2022-12-20T12:22:24;4.27;;;3.13;;
32786;SDS011;19139;49.372;8.580;2022-12-20T12:24:57;4.60;;;3.93;;
32786;SDS011;19139;49.372;8.580;2022-12-20T12:27:28;5.87;;;3.70;;
32786;SDS011;19139;49.372;8.580;2022-12-20T12:29:54;5.10;;;3.27;;
32786;SDS011;19139;49.372;8.580;2022-12-20T12:32:37;4.30;;;3.90;;
32786;SDS011;19139;49.372;8.580;2022-12-20T12:46:43;4.67;;;4.03;;
32786;SDS011;19139;49.372;8.580;2022-12-20T12:49:16;4.30;;;3.53;;
32786;SDS011;19139;49.372;8.580;2022-12-20T12:51:57;4.53;;;3.43;;
32786;SDS011;19139;49.372;8.580;2022-12-20T12:54:27;3.57;;;3.20;;
32786;SDS011;19139;49.372;8.580;2022-12-20T12:57:02;3.37;;;3.07;;
32786;SDS011;19139;49.372;8.580;2022-12-20T13:04:56;3.87;;;3.40;;
32786;SDS011;19139;49.372;8.580;2022-12-20T13:07:29;4.77;;;3.80;;
32786;SDS011;19139;49.372;8.580;2022-12-20T13:17:48;3.37;;;3.00;;
32786;SDS011;19139;49.372;8.580;2022-12-20T13:20:25;4.17;;;3.70;;
32786;SDS011;19139;49.372;8.580;2022-12-20T13:23:12;3.77;;;3.37;;
32786;SDS011;19139;49.372;8.580;2022-12-20T13:25:43;4.53;;;4.03;;
32786;SDS011;19139;49.372;8.580;2022-12-20T13:30:44;3.50;;;3.20;;
32786;SDS011;19139;49.372;8.580;2022-12-20T13:33:16;3.57;;;3.17;;
32786;SDS011;19139;49.372;8.580;2022-12-20T13:35:55;4.00;;;3.43;;
32786;SDS011;19139;49.372;8.580;2022-12-20T13:38:35;4.37;;;3.73;;
32786;SDS011;19139;49.372;8.580;2022-12-20T13:49:21;4.60;;;3.67;;
32786;SDS011;19139;49.372;8.580;2022-12-20T13:54:43;4.03;;;3.20;;
32786;SDS011;19139;49.372;8.580;2022-12-20T13:57:15;3.80;;;2.93;;
32786;SDS011;19139;49.372;8.580;2022-12-20T14:00:03;3.60;;;3.30;;
32786;SDS011;19139;49.372;8.580;2022-12-20T14:02:34;4.60;;;3.43;;
32786;SDS011;19139;49.372;8.580;2022-12-20T14:05:19;4.47;;;3.23;;
32786;SDS011;19139;49.372;8.580;2022-12-20T14:07:55;3.33;;;3.03;;
32786;SDS011;19139;49.372;8.580;2022-12-20T14:10:26;3.80;;;3.20;;
32786;SDS011;19139;49.372;8.580;2022-12-20T14:12:54;5.30;;;3.43;;
32786;SDS011;19139;49.372;8.580;2022-12-20T14:15:31;4.60;;;3.00;;
32786;SDS011;19139;49.372;8.580;2022-12-20T14:18:04;3.80;;;3.30;;
32786;SDS011;19139;49.372;8.580;2022-12-20T14:20:40;4.00;;;3.17;;
32786;SDS011;19139;49.372;8.580;2022-12-20T14:23:11;3.53;;;3.20;;
32786;SDS011;19139;49.372;8.580;2022-12-20T14:25:46;3.97;;;3.23;;
32786;SDS011;19139;49.372;8.580;2022-12-20T14:30:57;4.97;;;3.30;;
32786;SDS011;19139;49.372;8.580;2022-12-20T14:33:28;3.87;;;3.10;;
32786;SDS011;19139;49.372;8.580;2022-12-20T14:36:07;4.20;;;3.63;;
32786;SDS011;19139;49.372;8.580;2022-12-20T14:38:53;6.17;;;3.43;;
32786;SDS011;19139;49.372;8.580;2022-12-20T14:41:30;4.20;;;3.80;;
32786;SDS011;19139;49.372;8.580;2022-12-20T14:46:54;4.93;;;3.27;;
32786;SDS011;19139;49.372;8.580;2022-12-20T14:49:31;3.70;;;3.30;;
32786;SDS011;19139;49.372;8.580;2022-12-20T14:54:55;4.27;;;3.40;;
32786;SDS011;19139;49.372;8.580;2022-12-20T15:10:58;5.00;;;3.70;;
32786;SDS011;19139;49.372;8.580;2022-12-20T15:13:36;3.37;;;2.90;;
32786;SDS011;19139;49.372;8.580;2022-12-20T15:16:15;3.97;;;2.73;;
32786;SDS011;19139;49.372;8.580;2022-12-20T15:18:48;4.20;;;3.20;;
32786;SDS011;19139;49.372;8.580;2022-12-20T15:21:18;4.93;;;3.40;;
32786;SDS011;19139;49.372;8.580;2022-12-20T15:23:51;3.80;;;3.13;;
32786;SDS011;19139;49.372;8.580;2022-12-20T15:26:20;17.87;;;13.83;;
32786;SDS011;19139;49.372;8.580;2022-12-20T15:28:48;22.13;;;18.20;;
32786;SDS011;19139;49.372;8.580;2022-12-20T15:31:16;16.50;;;13.53;;
32786;SDS011;19139;49.372;8.580;2022-12-20T15:33:44;28.67;;;20.30;;
32786;SDS011;19139;49.372;8.580;2022-12-20T15:36:16;21.83;;;16.30;;
32786;SDS011;19139;49.372;8.580;2022-12-20T15:38:45;22.83;;;18.13;;
32786;SDS011;19139;49.372;8.580;2022-12-20T15:41:32;23.53;;;17.47;;
32786;SDS011;19139;49.372;8.580;2022-12-20T15:44:02;22.03;;;16.43;;
32786;SDS011;19139;49.372;8.580;2022-12-20T15:46:36;20.53;;;16.97;;
32786;SDS011;19139;49.372;8.580;2022-12-20T15:49:03;15.93;;;12.93;;
32786;SDS011;19139;49.372;8.580;2022-12-20T15:51:33;13.57;;;11.83;;
32786;SDS011;19139;49.372;8.580;2022-12-20T15:54:03;11.53;;;9.83;;
32786;SDS011;19139;49.372;8.580;2022-12-20T15:56:32;9.10;;;7.67;;
32786;SDS011;19139;49.372;8.580;2022-12-20T15:58:59;9.43;;;7.53;;
32786;SDS011;19139;49.372;8.580;2022-12-20T16:01:43;8.60;;;7.40;;
32786;SDS011;19139;49.372;8.580;2022-12-20T16:04:19;8.43;;;6.80;;
32786;SDS011;19139;49.372;8.580;2022-12-20T16:06:47;10.37;;;6.90;;
32786;SDS011;19139;49.372;8.580;2022-12-20T16:09:15;7.73;;;6.90;;
32786;SDS011;19139;49.372;8.580;2022-12-20T16:11:42;9.23;;;6.53;;
32786;SDS011;19139;49.372;8.580;2022-12-20T16:14:13;7.57;;;5.60;;
32786;SDS011;19139;49.372;8.580;2022-12-20T16:16:41;10.33;;;6.33;;
32786;SDS011;19139;49.372;8.580;2022-12-20T16:19:09;7.67;;;6.10;;
32786;SDS011;19139;49.372;8.580;2022-12-20T16:21:46;7.23;;;6.20;;
32786;SDS011;19139;49.372;8.580;2022-12-20T16:24:16;7.17;;;5.97;;
32786;SDS011;19139;49.372;8.580;2022-12-20T16:26:44;7.90;;;5.67;;
32786;SDS011;19139;49.372;8.580;2022-12-20T16:29:13;8.03;;;5.83;;
32786;SDS011;19139;49.372;8.580;2022-12-20T16:31:40;7.67;;;5.37;;
32786;SDS011;19139;49.372;8.580;2022-12-20T16:34:17;9.53;;;5.70;;
32786;SDS011;19139;49.372;8.580;2022-12-20T16:36:45;7.53;;;4.93;;
32786;SDS011;19139;49.372;8.580;2022-12-20T16:39:11;10.80;;;5.90;;
32786;SDS011;19139;49.372;8.580;2022-12-20T16:41:39;10.37;;;5.23;;
32786;SDS011;19139;49.372;8.580;2022-12-20T16:44:09;8.20;;;5.23;;
32786;SDS011;19139;49.372;8.580;2022-12-20T16:46:39;7.20;;;5.27;;
32786;SDS011;19139;49.372;8.580;2022-12-20T16:49:07;8.63;;;5.57;;
32786;SDS011;19139;49.372;8.580;2022-12-20T16:51:45;7.20;;;5.10;;
32786;SDS011;19139;49.372;8.580;2022-12-20T16:54:20;8.83;;;4.70;;
32786;SDS011;19139;49.372;8.580;2022-12-20T16:56:49;9.40;;;5.00;;
32786;SDS011;19139;49.372;8.580;2022-12-20T16:59:20;8.60;;;4.80;;
32786;SDS011;19139;49.372;8.580;2022-12-20T17:01:50;5.23;;;4.27;;